This is the latest recevied weather packets stored in our database for station/object S53BL-10. If no packets are shown the sender has not sent any weather packets the latest 10 day(s).
| Time | Temp. | Humidity | Pressure | Rain* | Wind** | Luminosity | Snow |
|---|---|---|---|---|---|---|---|
| 1777961261 | 14.44° C | 61% | 1011.5 hPa | - | - | - | - |
| 1777960360 | 14.44° C | 60% | 1011.5 hPa | - | - | - | - |
| 1777959459 | 13.89° C | 62% | 1011.4 hPa | - | - | - | - |
| 1777958558 | 12.78° C | 63% | 1011.5 hPa | - | - | - | - |
| 1777957657 | 12.22° C | 65% | 1011.5 hPa | - | - | - | - |
| 1777956757 | 12.22° C | 66% | 1011.4 hPa | - | - | - | - |
| 1777955856 | 11.67° C | 67% | 1011.4 hPa | - | - | - | - |
| 1777954955 | 11.11° C | 68% | 1011.5 hPa | - | - | - | - |
| 1777954054 | 11.67° C | 65% | 1011.4 hPa | - | - | - | - |
| 1777953154 | 11.11° C | 68% | 1011.5 hPa | - | - | - | - |
| 1777952253 | 11.11° C | 68% | 1011.4 hPa | - | - | - | - |
| 1777951352 | 11.11° C | 67% | 1011.4 hPa | - | - | - | - |
| 1777950451 | 11.67° C | 66% | 1011.6 hPa | - | - | - | - |
| 1777949550 | 11.11° C | 67% | 1011.7 hPa | - | - | - | - |
| 1777948650 | 11.67° C | 66% | 1011.8 hPa | - | - | - | - |
| 1777947749 | 11.67° C | 66% | 1012 hPa | - | - | - | - |
| 1777946848 | 12.22° C | 63% | 1012 hPa | - | - | - | - |
| 1777945947 | 12.22° C | 61% | 1011.9 hPa | - | - | - | - |
| 1777945046 | 12.22° C | 62% | 1012.1 hPa | - | - | - | - |
| 1777944146 | 12.78° C | 60% | 1012.2 hPa | - | - | - | - |
| 1777943245 | 12.78° C | 59% | 1012.3 hPa | - | - | - | - |
| 1777942344 | 13.33° C | 58% | 1012.3 hPa | - | - | - | - |
| 1777941443 | 13.33° C | 58% | 1012.5 hPa | - | - | - | - |
| 1777940542 | 13.33° C | 57% | 1012.5 hPa | - | - | - | - |
| 1777939641 | 13.89° C | 55% | 1012.6 hPa | - | - | - | - |
* Rain since midnight (hover to see other rain measurements)
** Current wind speed in m/s (hover to see current wind gust speed)